Time;durP1;ratioP1;P1;durP2;ratioP2;P2;SDS_P1;SDS_P2;PMS_P1;PMS_P2;Temp;Humidity;BMP_temperature;BMP_pressure;BME280_temperature;BME280_humidity;BME280_pressure;Samples;Min_cycle;Max_cycle;Signal;HPM_P1;HPM_P2
2021/08/02 00:00:29;;;;;;;5.68;4.25;;;14.30;99.90;;;15.00;95.19;97664.22;5206536;28;20202;-59
2021/08/02 00:03:13;;;;;;;5.55;4.72;;;14.30;99.90;;;14.97;95.55;97664.13;5210392;28;20661;-59
2021/08/02 00:05:48;;;;;;;4.93;4.53;;;14.30;99.90;;;15.00;95.55;97664.22;5212661;28;20194;-59
2021/08/02 00:08:23;;;;;;;4.45;4.05;;;14.30;99.90;;;14.99;95.44;97661.59;5209142;28;20316;-59
2021/08/02 00:11:01;;;;;;;4.75;4.38;;;14.20;99.90;;;14.98;95.38;97660.72;5207664;28;20217;-59
2021/08/02 00:13:37;;;;;;;4.60;4.13;;;14.20;99.90;;;14.98;96.07;97665.88;5215758;28;20198;-59
2021/08/02 00:16:10;;;;;;;4.82;4.53;;;14.20;99.90;;;14.97;95.80;97661.56;5218558;28;20197;-59
2021/08/02 00:18:44;;;;;;;4.90;4.43;;;14.20;99.90;;;14.98;95.65;97665.00;5206014;28;20218;-58
2021/08/02 00:21:17;;;;;;;4.80;4.40;;;14.20;99.90;;;14.94;95.15;97652.84;5214712;28;20196;-59
2021/08/02 00:23:51;;;;;;;4.50;4.20;;;14.20;99.90;;;14.92;95.18;97665.66;5213883;28;20654;-59
2021/08/02 00:26:24;;;;;;;5.13;4.72;;;14.20;99.90;;;14.91;95.42;97663.00;5205876;28;20194;-59
2021/08/02 00:28:59;;;;;;;5.38;4.93;;;14.20;99.90;;;14.90;95.33;97667.28;5218098;28;20213;-59
2021/08/02 00:31:33;;;;;;;5.13;4.72;;;14.20;99.90;;;14.83;95.25;97668.75;5216179;28;20228;-59
2021/08/02 00:34:07;;;;;;;5.30;4.57;;;14.20;99.90;;;14.87;95.11;97665.47;5207244;28;20200;-58
2021/08/02 00:36:44;;;;;;;4.57;4.18;;;14.10;99.90;;;14.92;94.89;97667.34;5222788;28;20561;-59
2021/08/02 00:39:28;;;;;;;4.78;3.70;;;14.20;99.90;;;14.94;94.72;97666.59;5218162;28;20201;-59
2021/08/02 00:42:43;;;;;;;4.25;3.85;;;14.20;99.90;;;14.93;94.53;97669.09;5206452;28;20212;-59
2021/08/02 00:45:19;;;;;;;4.82;4.10;;;14.20;99.90;;;14.98;95.14;97670.16;5217550;28;20197;-59
2021/08/02 00:48:00;;;;;;;5.55;4.15;;;14.20;99.90;;;14.98;94.72;97670.16;5217402;28;20218;-59
2021/08/02 00:50:39;;;;;;;6.93;4.28;;;14.20;99.90;;;15.04;95.63;97678.09;5221308;28;20201;-59
2021/08/02 00:53:16;;;;;;;4.97;4.10;;;14.30;99.90;;;15.06;95.58;97673.88;5216065;28;20207;-58
2021/08/02 00:55:52;;;;;;;4.70;4.18;;;14.40;99.90;;;15.10;94.64;97676.59;5223521;28;20284;-59
2021/08/02 00:58:29;;;;;;;4.35;4.05;;;14.30;99.90;;;15.11;94.82;97680.06;5207239;28;20225;-59
2021/08/02 01:01:02;;;;;;;5.75;4.20;;;14.40;99.90;;;15.14;94.49;97680.19;5208318;28;20197;-59
2021/08/02 01:03:36;;;;;;;4.53;3.92;;;14.40;99.90;;;15.15;94.70;97674.19;5224428;28;20197;-59
2021/08/02 01:06:11;;;;;;;5.03;4.20;;;14.40;99.90;;;15.19;94.19;97673.47;5220391;28;20681;-59
2021/08/02 01:08:48;;;;;;;4.28;3.80;;;14.40;99.90;;;15.21;94.00;97671.84;5210200;28;20259;-58
2021/08/02 01:11:24;;;;;;;4.88;4.38;;;14.50;99.90;;;15.22;93.52;97676.19;5208781;28;20221;-59
2021/08/02 01:13:57;;;;;;;4.65;4.25;;;14.50;99.90;;;15.25;93.98;97677.97;5207554;28;20202;-59
2021/08/02 01:16:31;;;;;;;4.18;3.88;;;14.50;99.90;;;15.28;93.33;97670.34;5208823;28;20209;-59
2021/08/02 01:19:09;;;;;;;4.50;4.07;;;14.50;99.90;;;15.25;92.82;97668.56;5204938;28;20193;-58
2021/08/02 01:21:46;;;;;;;4.20;3.63;;;14.40;99.90;;;15.25;92.71;97680.53;5216544;28;20645;-59
2021/08/02 01:24:22;;;;;;;3.75;3.45;;;14.40;99.90;;;15.22;92.48;97681.34;5206463;28;20208;-59
2021/08/02 01:27:44;;;;;;;4.35;4.05;;;14.40;99.90;;;15.22;92.96;97680.44;5205555;28;20217;-59
2021/08/02 01:30:26;;;;;;;4.20;3.90;;;14.40;99.90;;;15.14;93.00;97676.72;5207046;28;20717;-59
2021/08/02 01:32:59;;;;;;;4.15;3.85;;;14.30;99.90;;;15.09;93.00;97680.00;5217163;28;20221;-59
2021/08/02 01:35:32;;;;;;;3.85;3.55;;;14.30;99.90;;;15.06;93.26;97679.91;5209788;28;20194;-59
2021/08/02 01:38:05;;;;;;;4.00;3.60;;;14.30;99.90;;;15.07;92.84;97678.19;5211454;28;20229;-59
2021/08/02 01:40:41;;;;;;;3.75;3.45;;;14.30;99.90;;;15.04;92.78;97680.66;5209024;28;20198;-59
2021/08/02 01:43:14;;;;;;;5.68;4.10;;;14.30;99.90;;;15.01;94.11;97680.56;5213165;28;20292;-59
2021/08/02 01:45:57;;;;;;;3.83;3.53;;;14.30;99.90;;;15.07;93.51;97681.63;5210791;28;20198;-59
2021/08/02 01:48:42;;;;;;;4.15;3.80;;;14.30;99.90;;;15.06;93.47;97684.16;5208815;28;20241;-58
2021/08/02 01:51:23;;;;;;;4.25;3.85;;;14.20;99.90;;;15.03;93.51;97679.78;5214101;28;20244;-59
2021/08/02 01:54:06;;;;;;;4.28;4.00;;;14.20;99.90;;;15.04;93.38;97684.09;5211570;28;20687;-59
2021/08/02 01:56:50;;;;;;;3.90;3.55;;;14.20;99.90;;;15.04;93.82;97688.38;5219241;28;20204;-61
2021/08/02 01:59:29;;;;;;;6.43;3.80;;;14.20;99.90;;;15.01;94.07;97685.69;5209331;28;20276;-58
2021/08/02 02:02:06;;;;;;;4.53;4.10;;;14.20;99.90;;;15.07;94.01;97688.50;5208713;28;20672;-58
2021/08/02 02:04:48;;;;;;;4.35;4.05;;;14.30;99.90;;;15.04;94.08;97696.09;5216785;28;20225;-58
2021/08/02 02:07:23;;;;;;;4.45;4.05;;;14.30;99.90;;;15.07;94.24;97691.06;5207959;28;20213;-58
2021/08/02 02:09:59;;;;;;;4.18;3.85;;;14.30;99.90;;;15.10;94.56;97686.03;5209467;28;20577;-58
2021/08/02 02:12:34;;;;;;;4.45;4.15;;;14.30;99.90;;;15.07;93.50;97688.50;5216167;28;20217;-58
2021/08/02 02:15:08;;;;;;;4.13;3.72;;;14.30;99.90;;;15.10;94.42;97692.03;5209399;28;20228;-57
2021/08/02 02:17:44;;;;;;;6.28;4.05;;;14.30;99.90;;;15.14;94.55;97697.31;5214749;28;20221;-57
2021/08/02 02:20:17;;;;;;;4.95;4.35;;;14.30;99.90;;;15.16;94.83;97686.25;5216344;28;20204;-58
2021/08/02 02:22:50;;;;;;;4.57;4.18;;;14.40;99.90;;;15.20;94.37;97689.81;5223713;28;20808;-58
2021/08/02 02:25:24;;;;;;;4.65;4.32;;;14.50;99.90;;;15.27;94.16;97699.50;5215982;28;20744;-58
2021/08/02 02:27:58;;;;;;;4.35;4.05;;;14.50;99.90;;;15.25;93.76;97691.75;5209268;28;20597;-58
2021/08/02 02:30:32;;;;;;;4.65;3.80;;;14.40;99.90;;;15.27;92.82;97695.22;5208427;28;20583;-58
2021/08/02 02:33:06;;;;;;;4.07;3.70;;;14.40;99.90;;;15.26;93.03;97698.66;5215724;28;20312;-58
2021/08/02 02:35:41;;;;;;;5.38;3.78;;;14.40;99.90;;;15.26;92.66;97698.66;5208256;28;20194;-58
2021/08/02 02:38:16;;;;;;;5.10;4.32;;;14.40;99.90;;;15.15;91.64;97694.81;5209952;28;20271;-58
2021/08/02 02:40:51;;;;;;;3.67;3.38;;;14.30;99.90;;;15.06;91.79;97707.34;5214559;28;20671;-58
2021/08/02 02:43:26;;;;;;;4.40;4.00;;;14.20;99.90;;;15.02;92.35;97702.88;5208450;28;20277;-58
2021/08/02 02:46:00;;;;;;;3.80;3.60;;;14.30;99.90;;;15.02;93.55;97688.34;5224117;28;20203;-58
2021/08/02 02:48:34;;;;;;;4.47;4.10;;;14.30;99.90;;;15.04;94.07;97698.69;5208803;28;20225;-58
2021/08/02 02:51:08;;;;;;;4.40;4.10;;;14.30;99.90;;;15.07;94.29;97698.78;5211414;28;20198;-58
2021/08/02 02:53:42;;;;;;;4.80;4.38;;;14.30;99.90;;;15.09;95.50;97700.59;5217412;28;20226;-59
2021/08/02 02:56:17;;;;;;;4.30;4.00;;;14.40;99.90;;;15.12;95.25;97702.41;5207432;28;20197;-57
2021/08/02 02:58:52;;;;;;;4.63;3.70;;;14.40;99.90;;;15.15;94.37;97702.53;5212996;28;20275;-57
2021/08/02 03:01:30;;;;;;;5.03;3.85;;;14.40;99.90;;;15.13;94.29;97699.00;5217549;28;20200;-58
2021/08/02 03:04:04;;;;;;;4.88;4.43;;;14.40;99.90;;;15.17;93.66;97703.47;5223308;28;20622;-58
2021/08/02 03:06:39;;;;;;;6.75;3.80;;;14.30;99.90;;;15.19;93.26;97706.94;5207419;28;20193;-58
2021/08/02 03:09:17;;;;;;;4.55;4.15;;;14.40;99.90;;;15.22;93.04;97704.50;5218880;28;20208;-57
2021/08/02 03:11:50;;;;;;;4.55;4.25;;;14.40;99.90;;;15.16;93.48;97709.41;5213986;28;20218;-57
2021/08/02 03:14:25;;;;;;;4.40;4.03;;;14.40;99.90;;;15.16;93.87;97714.56;5215511;28;20302;-58
2021/08/02 03:16:58;;;;;;;6.65;4.50;;;14.40;99.90;;;15.14;93.38;97713.66;5212131;28;20229;-58
2021/08/02 03:19:31;;;;;;;5.00;4.00;;;14.40;99.90;;;15.15;93.83;97715.41;5207009;28;20193;-58
2021/08/02 03:22:16;;;;;;;4.68;4.38;;;14.40;99.90;;;15.17;93.87;97713.75;5222550;28;20209;-58
2021/08/02 03:24:58;;;;;;;4.55;3.95;;;14.40;99.90;;;15.23;93.82;97718.25;5210765;28;20202;-58
2021/08/02 03:27:38;;;;;;;5.25;4.18;;;14.40;99.90;;;15.26;93.75;97710.66;5218980;28;20224;-58
2021/08/02 03:30:14;;;;;;;4.90;4.43;;;14.40;99.90;;;15.27;93.10;97714.97;5218396;28;20201;-58
2021/08/02 03:32:49;;;;;;;4.80;4.28;;;14.40;99.90;;;15.25;92.88;97717.50;5206919;28;20244;-58
2021/08/02 03:35:23;;;;;;;4.82;4.50;;;14.40;99.90;;;15.20;92.83;97719.03;5215969;28;20207;-58
2021/08/02 03:37:56;;;;;;;4.93;4.03;;;14.40;99.90;;;15.21;92.83;97725.91;5225813;28;20604;-58
2021/08/02 03:40:30;;;;;;;4.50;4.07;;;14.40;99.90;;;15.23;93.20;97728.56;5218596;28;20668;-56
2021/08/02 03:43:04;;;;;;;4.65;4.25;;;14.40;99.90;;;15.28;92.27;97721.84;5207532;28;20292;-58
2021/08/02 03:45:39;;;;;;;4.40;4.05;;;14.40;99.90;;;15.24;92.68;97726.03;5206836;28;20209;-58
2021/08/02 03:48:13;;;;;;;4.70;4.10;;;14.40;99.90;;;15.18;92.92;97724.94;5206169;28;20248;-58
2021/08/02 03:50:47;;;;;;;5.18;4.10;;;14.30;99.90;;;15.21;92.90;97731.06;5214290;28;20208;-58
2021/08/02 03:53:20;;;;;;;4.50;4.10;;;14.30;99.90;;;15.25;92.62;97740.69;5216229;28;20225;-57
2021/08/02 03:55:53;;;;;;;4.88;4.18;;;14.30;99.90;;;15.22;92.42;97732.84;5215270;28;20575;-57
2021/08/02 03:58:27;;;;;;;5.07;4.65;;;14.30;99.90;;;15.15;93.20;97736.00;5214518;28;20229;-57
2021/08/02 04:01:01;;;;;;;5.47;4.85;;;14.30;99.90;;;15.08;92.84;97737.47;5212705;28;20202;-58
2021/08/02 04:03:35;;;;;;;4.45;4.05;;;14.30;99.90;;;15.06;92.72;97745.94;5224790;28;20197;-58
2021/08/02 04:06:09;;;;;;;5.78;4.78;;;14.20;99.90;;;15.07;92.70;97747.69;5211851;28;20194;-58
2021/08/02 04:08:42;;;;;;;4.63;4.20;;;14.20;99.90;;;15.08;93.23;97744.31;5212247;28;20417;-58
2021/08/02 04:11:15;;;;;;;4.28;3.88;;;14.20;99.90;;;15.10;93.12;97752.97;5208663;28;20198;-57
2021/08/02 04:13:48;;;;;;;4.40;4.10;;;14.30;99.90;;;15.10;93.21;97755.53;5206431;28;20683;-58
2021/08/02 04:16:23;;;;;;;4.03;3.72;;;14.20;99.90;;;15.10;92.88;97747.81;5221598;28;20201;-58
2021/08/02 04:18:56;;;;;;;6.18;4.13;;;14.30;99.90;;;15.14;93.24;97756.50;5217280;28;20220;-59
2021/08/02 04:21:29;;;;;;;6.07;3.95;;;14.30;99.90;;;15.13;93.36;97765.94;5217106;28;20200;-58
2021/08/02 04:24:03;;;;;;;4.32;4.03;;;14.30;99.90;;;15.16;92.69;97773.78;5209460;28;20560;-58
2021/08/02 04:26:36;;;;;;;4.53;4.22;;;14.30;99.90;;;15.13;93.13;97765.06;5214323;28;20217;-58
2021/08/02 04:29:10;;;;;;;4.60;4.30;;;14.30;99.90;;;15.14;92.90;97770.28;5218538;28;20202;-58
2021/08/02 04:31:44;;;;;;;4.30;3.95;;;14.30;99.90;;;15.18;93.12;97771.28;5205925;28;20248;-57
2021/08/02 04:34:17;;;;;;;4.38;4.07;;;14.40;99.90;;;15.24;93.34;97774.06;5216660;28;20315;-57
2021/08/02 04:36:50;;;;;;;4.40;4.10;;;14.40;99.90;;;15.27;92.42;97776.75;5212967;28;20208;-58
2021/08/02 04:39:23;;;;;;;4.53;4.15;;;14.40;99.90;;;15.25;93.03;97778.41;5212353;28;20193;-58
2021/08/02 04:41:56;;;;;;;7.68;4.05;;;14.40;99.90;;;15.30;92.77;97777.75;5217301;28;20587;-57
2021/08/02 04:44:29;;;;;;;4.18;3.88;;;14.50;99.90;;;15.32;92.73;97776.13;5213980;28;20197;-57
2021/08/02 04:47:05;;;;;;;4.53;3.83;;;14.50;99.90;;;15.36;92.70;97776.22;5215029;28;20227;-58
2021/08/02 04:49:38;;;;;;;4.68;4.38;;;14.50;99.90;;;15.36;92.90;97777.09;5205987;28;20205;-57
2021/08/02 04:52:11;;;;;;;4.65;4.07;;;14.50;99.90;;;15.39;92.89;97781.50;5218235;28;20197;-58
2021/08/02 04:54:44;;;;;;;4.50;4.20;;;14.50;99.90;;;15.38;92.83;97778.03;5224325;28;20217;-58
2021/08/02 04:57:17;;;;;;;5.90;4.18;;;14.50;99.90;;;15.44;92.31;97780.84;5223402;28;20261;-57
2021/08/02 04:59:50;;;;;;;4.70;4.30;;;14.50;99.90;;;15.47;92.22;97785.22;5206526;28;20288;-58
2021/08/02 05:02:24;;;;;;;4.53;4.07;;;14.50;99.90;;;15.53;91.91;97773.44;5215055;28;20297;-58
2021/08/02 05:04:57;;;;;;;4.47;4.07;;;14.60;99.90;;;15.55;91.92;97778.66;5216486;28;20676;-58
2021/08/02 05:07:31;;;;;;;4.82;4.45;;;14.60;99.90;;;15.54;91.63;97777.78;5208260;28;20308;-58
2021/08/02 05:10:05;;;;;;;4.53;4.10;;;14.60;99.90;;;15.56;91.52;97782.97;5217104;28;20204;-58
2021/08/02 05:12:38;;;;;;;4.88;4.45;;;14.60;99.90;;;15.50;91.44;97793.06;5216127;28;20202;-58
2021/08/02 05:15:13;;;;;;;4.20;3.90;;;14.60;99.90;;;15.47;92.07;97790.38;5205367;28;20564;-57
2021/08/02 05:17:47;;;;;;;4.88;4.40;;;14.60;99.90;;;15.49;92.03;97787.03;5209121;28;20228;-55
2021/08/02 05:20:21;;;;;;;4.20;3.90;;;14.60;99.90;;;15.53;91.91;97788.03;5214301;28;20200;-58
2021/08/02 05:22:54;;;;;;;4.15;3.75;;;14.60;99.90;;;15.54;92.35;97787.22;5214883;28;20591;-56
2021/08/02 05:25:27;;;;;;;5.32;4.28;;;14.70;99.90;;;15.57;91.77;97786.44;5208778;28;20198;-58
2021/08/02 05:28:01;;;;;;;4.68;4.28;;;14.70;99.90;;;15.61;91.87;97789.19;5204952;28;20213;-58
2021/08/02 05:30:34;;;;;;;4.25;3.85;;;14.80;99.90;;;15.68;92.34;97786.06;5211711;28;20193;-58
2021/08/02 05:33:08;;;;;;;5.80;4.28;;;14.80;99.90;;;15.74;91.88;97786.25;5216709;28;20190;-58
2021/08/02 05:35:41;;;;;;;4.22;3.92;;;14.90;99.90;;;15.77;91.91;97786.38;5221170;28;20210;-59
2021/08/02 05:38:14;;;;;;;4.03;3.83;;;15.00;99.90;;;15.87;91.66;97782.41;5205629;28;20220;-59
2021/08/02 05:40:47;;;;;;;4.40;4.00;;;15.00;99.90;;;15.93;91.37;97792.06;5207060;28;20210;-59
2021/08/02 05:43:20;;;;;;;4.50;4.10;;;15.00;99.90;;;15.97;90.62;97793.94;5205087;28;20590;-57
2021/08/02 05:45:53;;;;;;;4.38;3.97;;;15.10;99.90;;;16.04;89.28;97790.72;5218173;28;20197;-59
2021/08/02 05:48:28;;;;;;;4.50;4.10;;;15.00;99.90;;;16.01;89.61;97790.63;5212498;28;20312;-58
2021/08/02 05:51:01;;;;;;;5.15;4.60;;;15.10;99.90;;;15.98;90.57;97790.53;5204551;28;20201;-58
2021/08/02 05:53:34;;;;;;;4.13;3.83;;;15.10;99.90;;;15.94;89.62;97788.66;5213606;28;20232;-57
2021/08/02 05:56:07;;;;;;;4.82;4.43;;;15.10;99.90;;;15.99;90.06;97792.25;5204937;28;20194;-58
2021/08/02 05:58:40;;;;;;;4.60;4.22;;;15.10;99.90;;;16.02;90.09;97800.09;5213540;28;20712;-57
2021/08/02 06:01:13;;;;;;;4.32;3.97;;;15.20;99.90;;;16.06;89.38;97801.09;5215861;28;20202;-59
2021/08/02 06:03:48;;;;;;;4.65;4.25;;;15.20;99.90;;;16.10;88.96;97801.25;5212613;28;20567;-57
2021/08/02 06:06:21;;;;;;;4.55;4.15;;;15.20;99.90;;;16.11;88.80;97810.75;5204566;28;20288;-57
2021/08/02 06:08:54;;;;;;;4.95;3.95;;;15.20;99.90;;;16.15;88.69;97799.72;5212163;28;20213;-58
2021/08/02 06:11:27;;;;;;;4.43;4.05;;;15.30;99.90;;;16.20;89.24;97810.19;5221372;28;20207;-58
2021/08/02 06:14:00;;;;;;;4.20;3.90;;;15.30;99.90;;;16.30;89.14;97808.78;5212047;28;20595;-58
2021/08/02 06:16:36;;;;;;;4.18;3.78;;;15.30;99.90;;;16.35;88.95;97817.56;5207180;28;20684;-56
2021/08/02 06:19:11;;;;;;;3.80;3.50;;;15.40;99.90;;;16.37;89.13;97814.22;5224517;28;20204;-58
2021/08/02 06:21:44;;;;;;;4.90;4.50;;;15.50;99.90;;;16.40;88.75;97816.03;5214895;28;20197;-58
2021/08/02 06:24:17;;;;;;;4.38;4.07;;;15.50;99.90;;;16.39;88.51;97814.25;5215745;28;20197;-59
2021/08/02 06:26:50;;;;;;;4.63;4.22;;;15.50;99.90;;;16.43;88.39;97811.84;5217439;28;20202;-57
2021/08/02 06:29:23;;;;;;;4.28;3.92;;;15.50;99.90;;;16.50;88.72;97825.81;5215739;28;20197;-58
2021/08/02 06:31:56;;;;;;;4.38;3.83;;;15.60;99.90;;;16.56;88.19;97827.72;5220043;28;20555;-58
2021/08/02 06:34:30;;;;;;;3.75;3.38;;;15.60;99.90;;;16.62;88.45;97826.19;5214228;28;20317;-58
2021/08/02 06:37:04;;;;;;;4.93;4.47;;;15.70;99.90;;;16.67;87.76;97828.94;5212305;28;20217;-58
2021/08/02 06:39:37;;;;;;;4.22;3.92;;;15.70;99.90;;;16.64;87.64;97829.72;5208855;28;20202;-57
2021/08/02 06:42:13;;;;;;;4.15;3.70;;;15.70;99.90;;;16.70;87.49;97835.91;5219895;28;20198;-58
2021/08/02 06:44:47;;;;;;;5.50;4.03;;;15.80;99.90;;;16.71;87.06;97832.50;5222025;28;20193;-58
2021/08/02 06:47:19;;;;;;;4.15;3.85;;;15.80;99.90;;;16.71;87.60;97843.72;5210801;28;20221;-58
2021/08/02 06:49:54;;;;;;;4.10;3.88;;;15.80;99.90;;;16.75;88.03;97842.13;5216422;28;20205;-57
2021/08/02 06:52:27;;;;;;;4.63;4.22;;;15.80;99.90;;;16.75;88.34;97835.25;5225819;28;20203;-58
2021/08/02 06:55:00;;;;;;;4.07;3.78;;;15.90;99.90;;;16.76;89.21;97831.84;5219302;28;20228;-57
2021/08/02 06:57:33;;;;;;;4.45;4.05;;;15.90;99.90;;;16.78;88.72;97837.06;5211636;28;20225;-58
2021/08/02 07:00:08;;;;;;;4.47;4.10;;;15.90;99.90;;;16.77;88.62;97832.72;5213081;28;20197;-57
2021/08/02 07:02:41;;;;;;;4.22;3.92;;;15.90;99.90;;;16.81;88.81;97830.31;5208103;28;20209;-59
2021/08/02 07:05:19;;;;;;;4.53;4.07;;;16.00;99.90;;;16.88;88.59;97840.00;5222179;28;20302;-56
2021/08/02 07:07:52;;;;;;;4.72;4.15;;;16.10;99.90;;;16.96;87.88;97834.19;5211275;28;20304;-56
2021/08/02 07:10:25;;;;;;;4.90;4.20;;;16.10;99.90;;;16.99;86.82;97832.59;5207286;28;20198;-59
2021/08/02 07:12:58;;;;;;;4.68;4.28;;;16.20;99.90;;;17.04;86.29;97833.59;5216245;28;20207;-56
2021/08/02 07:15:31;;;;;;;5.30;4.43;;;16.20;99.90;;;17.07;85.46;97833.69;5217147;28;20221;-59
2021/08/02 07:18:05;;;;;;;4.47;4.13;;;16.20;99.90;;;17.14;85.87;97827.03;5224824;28;20221;-58
2021/08/02 07:20:39;;;;;;;4.20;3.80;;;16.30;99.90;;;17.31;83.74;97832.69;5217817;28;20660;-58
2021/08/02 07:23:12;;;;;;;4.18;3.72;;;16.30;99.90;;;17.41;84.13;97834.72;5214098;28;20200;-57
2021/08/02 07:25:46;;;;;;;5.63;3.50;;;16.40;99.90;;;17.45;83.39;97841.72;5215549;28;20198;-59
2021/08/02 07:28:19;;;;;;;3.70;3.40;;;16.40;99.90;;;17.52;82.81;97838.50;5210773;28;20217;-58
2021/08/02 07:30:52;;;;;;;3.90;3.60;;;16.50;99.90;;;17.60;82.45;97830.09;5207847;28;20214;-58
2021/08/02 07:33:25;;;;;;;3.95;3.65;;;16.60;99.90;;;17.73;81.20;97837.38;5207117;28;20713;-58
2021/08/02 07:36:00;;;;;;;3.72;3.45;;;16.70;99.90;;;17.84;80.32;97835.13;5213841;28;20253;-59
2021/08/02 07:38:33;;;;;;;4.20;3.75;;;16.70;99.90;;;17.94;80.07;97837.13;5222849;28;20223;-58
2021/08/02 07:41:06;;;;;;;4.05;3.65;;;16.80;99.90;;;18.06;79.72;97836.59;5207508;28;20299;-58
2021/08/02 07:43:39;;;;;;;3.63;3.33;;;16.90;99.90;;;18.19;78.39;97833.50;5208084;28;20202;-58
2021/08/02 07:46:13;;;;;;;4.22;3.90;;;17.00;99.90;;;18.22;78.79;97836.16;5210334;28;20206;-59
2021/08/02 07:48:51;;;;;;;4.00;3.60;;;17.10;99.90;;;18.41;77.43;97830.63;5206586;28;20309;-57
2021/08/02 07:51:26;;;;;;;3.85;3.55;;;17.20;99.90;;;18.50;77.25;97823.94;5218772;28;20575;-59
2021/08/02 07:54:00;;;;;;;4.72;3.58;;;17.40;99.90;;;18.59;76.21;97831.94;5211536;28;20201;-56
2021/08/02 07:56:33;;;;;;;3.50;3.20;;;17.50;99.90;;;18.71;75.67;97832.22;5213002;28;20708;-58
2021/08/02 07:59:07;;;;;;;3.60;3.30;;;17.50;99.90;;;18.83;74.82;97826.53;5221226;22;20232;-63
2021/08/02 08:01:40;;;;;;;4.97;3.70;;;17.50;99.90;;;18.85;75.16;97836.06;5216084;28;20217;-63
2021/08/02 08:04:13;;;;;;;3.50;3.30;;;17.70;99.90;;;18.92;74.90;97838.84;5208614;28;20288;-63
2021/08/02 08:06:47;;;;;;;4.47;3.60;;;17.70;99.90;;;18.95;74.84;97831.13;5209100;28;20725;-63
2021/08/02 08:09:20;;;;;;;4.10;3.20;;;17.70;99.90;;;18.97;74.91;97832.00;5207044;28;20229;-63
2021/08/02 08:11:54;;;;;;;4.03;3.28;;;17.80;99.90;;;19.06;73.64;97827.06;5207648;28;20202;-63
2021/08/02 08:14:27;;;;;;;3.58;3.28;;;17.80;99.90;;;19.06;73.62;97832.25;5207471;28;20194;-63
2021/08/02 08:17:00;;;;;;;4.07;3.17;;;17.90;99.90;;;19.09;74.30;97828.00;5207113;28;20269;-63
2021/08/02 08:19:33;;;;;;;3.40;3.10;;;18.00;99.90;;;19.16;74.50;97833.34;5204763;28;20576;-64
2021/08/02 08:22:08;;;;;;;3.53;3.08;;;18.10;99.90;;;19.31;74.00;97831.06;5207077;28;20620;-63
2021/08/02 08:24:41;;;;;;;3.72;2.92;;;18.20;99.90;;;19.55;72.19;97830.75;5214374;28;20196;-63
2021/08/02 08:27:14;;;;;;;3.38;3.13;;;18.30;99.90;;;19.65;71.59;97832.69;5201762;28;20204;-63
2021/08/02 08:29:47;;;;;;;3.22;2.92;;;18.50;99.90;;;19.84;70.95;97833.09;5195879;28;20304;-61
2021/08/02 08:32:20;;;;;;;3.28;2.97;;;18.70;99.90;;;20.15;69.03;97832.84;5193599;28;20191;-61
2021/08/02 08:34:53;;;;;;;3.88;2.78;;;19.00;99.90;;;20.36;67.64;97836.69;5198337;28;20230;-61
2021/08/02 08:37:27;;;;;;;3.50;3.20;;;19.20;99.90;;;20.65;66.99;97834.63;5203131;28;20198;-61
2021/08/02 08:40:00;;;;;;;3.28;2.70;;;19.40;99.90;;;20.89;65.89;97836.75;5203067;28;20553;-61
2021/08/02 08:42:34;;;;;;;3.22;2.67;;;19.60;99.90;;;21.05;65.28;97835.25;5205727;28;20208;-62
2021/08/02 08:45:09;;;;;;;3.55;2.60;;;19.80;99.90;;;21.44;63.46;97842.78;5204773;28;20189;-61
2021/08/02 08:47:43;;;;;;;2.83;2.63;;;20.10;99.90;;;21.70;62.74;97831.88;5203862;28;20296;-62
2021/08/02 08:50:16;;;;;;;3.05;2.75;;;20.30;99.90;;;21.84;60.38;97832.91;5205137;28;20690;-61
2021/08/02 08:52:56;;;;;;;2.88;2.45;;;20.40;99.90;;;21.97;60.92;97826.09;5203621;28;20202;-61
2021/08/02 08:55:29;;;;;;;3.20;2.67;;;20.50;99.90;;;22.13;59.69;97828.03;5200374;28;20332;-61
2021/08/02 08:58:05;;;;;;;3.92;2.55;;;20.70;99.90;;;22.38;58.56;97829.19;5203124;28;20229;-62
2021/08/02 09:00:38;;;;;;;2.63;2.40;;;20.70;99.90;;;22.47;57.64;97831.88;5205479;28;20288;-61
2021/08/02 09:03:13;;;;;;;3.53;2.20;;;20.60;99.90;;;22.52;56.83;97833.63;5204696;28;20241;-62
2021/08/02 09:06:02;;;;;;;2.25;2.10;;;20.70;99.90;;;22.55;57.38;97825.84;5203560;28;20288;-61
2021/08/02 09:08:43;;;;;;;2.17;1.98;;;20.80;99.90;;;22.52;57.21;97826.72;5196969;28;20587;-61
2021/08/02 09:11:19;;;;;;;3.35;2.22;;;21.00;99.90;;;22.58;57.36;97825.91;5203299;28;20197;-61
2021/08/02 09:13:53;;;;;;;2.70;2.20;;;21.00;99.90;;;22.62;57.17;97822.44;5204179;28;20208;-61
2021/08/02 09:16:28;;;;;;;2.67;2.10;;;21.10;99.90;;;22.71;57.00;97818.19;5195352;28;20217;-60
2021/08/02 09:19:04;;;;;;;2.42;2.20;;;21.20;99.90;;;22.77;58.18;97822.56;5194556;28;20217;-62
2021/08/02 09:21:42;;;;;;;2.58;2.25;;;21.50;99.90;;;22.83;56.07;97816.53;5193229;28;20209;-62
2021/08/02 09:24:28;;;;;;;3.00;2.58;;;21.50;99.90;;;23.08;56.24;97826.31;5195726;28;20849;-61
2021/08/02 09:27:02;;;;;;;2.00;1.90;;;21.70;99.90;;;23.33;56.01;97824.75;5198757;28;20198;-62
2021/08/02 09:29:35;;;;;;;2.50;2.15;;;21.90;99.90;;;23.59;53.03;97822.28;5201776;28;20213;-62
2021/08/02 09:32:10;;;;;;;2.65;2.30;;;22.20;99.90;;;23.70;53.11;97814.53;5200709;28;20205;-61
2021/08/02 09:34:47;;;;;;;2.45;2.10;;;22.40;99.90;;;23.85;53.01;97818.06;5198895;28;20324;-62
2021/08/02 09:37:22;;;;;;;2.17;1.95;;;22.40;99.90;;;23.71;53.00;97824.09;5201905;28;20322;-61
2021/08/02 09:40:05;;;;;;;3.25;2.50;;;22.40;99.90;;;23.96;53.31;97819.84;5197769;28;20661;-62
2021/08/02 09:42:39;;;;;;;1.95;1.80;;;22.80;99.90;;;24.16;52.35;97809.47;5201955;28;20205;-61
2021/08/02 09:45:42;;;;;;;3.22;1.90;;;23.00;99.90;;;24.22;51.09;97819.91;5201044;28;20566;-62
2021/08/02 09:48:17;;;;;;;2.17;2.08;;;23.10;99.90;;;24.27;50.66;97812.97;5201107;28;20225;-61
2021/08/02 09:50:51;;;;;;;2.53;2.25;;;23.20;99.90;;;24.37;50.65;97803.38;5202176;28;20291;-61
2021/08/02 09:53:24;;;;;;;2.40;2.10;;;23.30;99.90;;;24.41;50.69;97804.25;5203802;28;20204;-62
2021/08/02 09:55:58;;;;;;;2.35;1.70;;;23.30;99.90;;;24.38;50.56;97799.03;5204529;28;20695;-62
2021/08/02 09:58:32;;;;;;;2.67;1.88;;;23.40;99.70;;;24.32;49.79;97799.88;5206776;28;20224;-62
2021/08/02 10:01:06;;;;;;;1.95;1.80;;;23.30;99.40;;;24.32;50.33;97799.03;5204760;28;20201;-62
2021/08/02 10:03:40;;;;;;;2.50;1.95;;;23.10;99.80;;;24.19;50.11;97803.38;5206244;28;20201;-61
2021/08/02 10:06:15;;;;;;;2.65;2.10;;;23.10;99.80;;;24.16;49.94;97799.00;5209377;28;20208;-60
2021/08/02 10:08:49;;;;;;;2.50;2.30;;;23.20;99.50;;;24.02;50.65;97792.88;5204494;28;20308;-60
2021/08/02 10:11:23;;;;;;;2.20;2.00;;;23.30;99.10;;;24.08;49.53;97790.28;5205142;28;20197;-62
2021/08/02 10:13:57;;;;;;;1.80;1.70;;;23.30;98.20;;;23.96;51.89;97785.03;5203615;28;20293;-61
2021/08/02 10:16:32;;;;;;;2.90;2.10;;;23.40;99.90;;;23.88;52.73;97782.38;5204205;28;20217;-62
2021/08/02 10:19:07;;;;;;;1.80;1.70;;;23.30;99.90;;;24.16;50.23;97788.56;5204522;28;20697;-61
2021/08/02 10:21:43;;;;;;;2.28;2.10;;;23.30;98.80;;;23.95;50.29;97785.88;5202790;28;20232;-62
2021/08/02 10:24:18;;;;;;;2.25;1.75;;;23.30;98.80;;;23.98;49.87;97783.28;5207519;28;20287;-62
2021/08/02 10:26:58;;;;;;;2.10;1.90;;;23.20;98.40;;;23.88;50.26;97781.53;5206411;28;20200;-61
2021/08/02 10:29:41;;;;;;;2.38;1.80;;;23.00;99.30;;;24.11;50.10;97776.34;5207892;28;20221;-62
2021/08/02 10:32:22;;;;;;;2.03;1.83;;;23.20;99.20;;;23.97;49.67;97777.19;5208370;28;20737;-63
2021/08/02 10:34:59;;;;;;;2.00;1.80;;;23.10;98.70;;;24.22;48.58;97778.13;5204838;28;20221;-64
2021/08/02 10:37:34;;;;;;;2.08;1.88;;;23.10;98.30;;;24.44;46.97;97767.75;5200408;28;20713;-61
2021/08/02 10:40:23;;;;;;;2.10;2.00;;;22.90;97.40;;;24.36;48.23;97764.22;5206155;28;20651;-62
2021/08/02 10:42:58;;;;;;;2.35;1.77;;;23.10;97.90;;;24.55;48.46;97765.97;5207213;28;20212;-63
2021/08/02 10:45:32;;;;;;;2.08;1.88;;;23.20;98.30;;;24.50;48.77;97762.50;5205481;28;20197;-64
2021/08/02 10:48:06;;;;;;;1.90;1.80;;;23.40;98.00;;;24.57;45.78;97759.00;5205312;28;20255;-63
2021/08/02 10:50:41;;;;;;;4.07;2.42;;;23.50;95.50;;;24.77;46.96;97755.50;5204947;28;21554;-63
2021/08/02 10:53:17;;;;;;;1.90;1.70;;;23.60;97.10;;;24.86;47.94;97758.13;5207600;28;20197;-64